createdAt,value
2023-08-07T00:01:29.710Z,1.13
2023-08-07T00:06:31.385Z,1.10
2023-08-07T00:11:33.807Z,1.00
2023-08-07T00:16:36.184Z,0.98
2023-08-07T00:21:38.989Z,1.00
2023-08-07T00:26:40.668Z,0.90
2023-08-07T00:31:42.539Z,1.00
2023-08-07T00:36:44.739Z,0.98
2023-08-07T00:41:46.466Z,0.88
2023-08-07T00:46:48.376Z,1.30
2023-08-07T00:51:50.187Z,1.40
2023-08-07T00:56:52.073Z,1.77
2023-08-07T01:01:53.896Z,1.77
2023-08-07T01:06:55.825Z,1.80
2023-08-07T01:11:57.594Z,1.60
2023-08-07T01:17:09.324Z,1.40
2023-08-07T01:22:18.519Z,1.30
2023-08-07T01:27:20.449Z,1.30
2023-08-07T01:32:34.953Z,1.30
2023-08-07T01:37:41.772Z,1.60
2023-08-07T01:42:45.390Z,1.60
2023-08-07T01:47:47.150Z,1.70
2023-08-07T01:52:49.629Z,1.48
2023-08-07T01:57:52.780Z,1.20
2023-08-07T02:02:54.726Z,1.70
2023-08-07T02:07:57.990Z,2.33
2023-08-07T02:13:02.760Z,2.55
2023-08-07T02:18:04.708Z,3.05
2023-08-07T02:23:06.688Z,2.75
2023-08-07T02:28:08.422Z,2.50
2023-08-07T02:33:10.136Z,2.42
2023-08-07T02:38:11.814Z,2.63
2023-08-07T02:43:13.518Z,2.67
2023-08-07T02:48:15.591Z,2.70
2023-08-07T02:53:17.343Z,3.15
2023-08-07T02:58:19.013Z,2.78
2023-08-07T03:03:21.045Z,2.53
2023-08-07T03:08:22.805Z,2.05
2023-08-07T03:13:25.565Z,1.60
2023-08-07T03:18:28.191Z,1.30
2023-08-07T03:23:30.328Z,1.40
2023-08-07T03:28:35.335Z,1.40
2023-08-07T03:33:37.428Z,1.70
2023-08-07T03:38:40.086Z,1.60
2023-08-07T03:43:42.003Z,1.80
2023-08-07T03:48:43.820Z,2.30
2023-08-07T03:53:46.109Z,2.65
2023-08-07T03:58:48.028Z,3.30
2023-08-07T04:03:49.878Z,2.92
2023-08-07T04:08:51.640Z,3.30
2023-08-07T04:13:53.452Z,3.65
2023-08-07T04:18:55.196Z,3.80
2023-08-07T04:23:56.932Z,3.85
2023-08-07T04:28:59.611Z,3.67
2023-08-07T04:34:01.378Z,4.60
2023-08-07T04:39:03.278Z,3.90
2023-08-07T04:44:05.173Z,5.20
2023-08-07T04:49:07.271Z,5.07
2023-08-07T04:54:10.056Z,5.07
2023-08-07T04:59:12.362Z,4.47
2023-08-07T05:04:14.068Z,4.68
2023-08-07T05:09:15.761Z,5.30
2023-08-07T05:14:17.444Z,4.80
2023-08-07T05:19:19.218Z,5.05
2023-08-07T05:24:21.004Z,4.20
2023-08-07T05:29:22.742Z,4.18
2023-08-07T05:34:24.469Z,3.40
2023-08-07T05:39:26.153Z,3.80
2023-08-07T05:44:27.879Z,2.90
2023-08-07T05:49:29.578Z,2.92
2023-08-07T05:54:31.272Z,2.20
2023-08-07T05:59:41.235Z,2.42
2023-08-07T06:04:43.008Z,2.38
2023-08-07T06:09:44.732Z,2.03
2023-08-07T06:14:46.422Z,2.20
2023-08-07T06:19:48.246Z,2.08
2023-08-07T06:24:50.034Z,1.73
2023-08-07T06:29:51.787Z,1.80
2023-08-07T06:34:54.008Z,1.40
2023-08-07T06:39:55.700Z,1.23
2023-08-07T06:45:00.559Z,1.70
2023-08-07T06:50:05.194Z,1.15
2023-08-07T06:55:07.930Z,1.65
2023-08-07T07:00:12.080Z,1.35
2023-08-07T07:05:14.387Z,1.25
2023-08-07T07:10:16.154Z,1.00
2023-08-07T07:15:18.019Z,1.00
2023-08-07T07:20:19.997Z,1.17
2023-08-07T07:25:21.728Z,0.95
2023-08-07T07:30:23.487Z,1.00
2023-08-07T07:35:25.458Z,0.73
2023-08-07T07:40:27.199Z,0.88
2023-08-07T07:45:29.123Z,0.70
2023-08-07T07:50:31.013Z,0.85
2023-08-07T07:55:33.285Z,0.70
2023-08-07T08:00:35.006Z,0.70
2023-08-07T08:05:36.733Z,0.60
2023-08-07T08:10:38.427Z,0.50
2023-08-07T08:15:40.251Z,0.45
2023-08-07T08:20:42.038Z,0.40
2023-08-07T08:25:43.803Z,0.50
2023-08-07T08:30:45.575Z,0.60
2023-08-07T08:35:47.350Z,0.65
2023-08-07T08:40:52.919Z,0.70
2023-08-07T08:45:54.771Z,0.80
2023-08-07T08:50:56.867Z,0.60
2023-08-07T08:55:58.615Z,0.50
2023-08-07T09:01:00.423Z,0.60
2023-08-07T09:06:02.472Z,0.40
2023-08-07T09:11:05.621Z,0.43
2023-08-07T09:16:09.968Z,0.40
2023-08-07T09:21:11.994Z,0.73
2023-08-07T09:26:13.960Z,0.47
2023-08-07T09:31:21.267Z,0.50
2023-08-07T09:36:24.817Z,0.43
2023-08-07T09:41:26.717Z,0.50
2023-08-07T09:46:28.515Z,0.28
2023-08-07T09:51:43.172Z,0.60
2023-08-07T09:56:45.093Z,0.47
2023-08-07T10:01:47.311Z,0.50
2023-08-07T10:06:49.374Z,0.50
2023-08-07T10:11:51.600Z,0.43
2023-08-07T10:16:54.728Z,0.32
2023-08-07T10:21:56.861Z,0.40
2023-08-07T10:26:59.854Z,0.40
2023-08-07T10:32:03.081Z,0.50
2023-08-07T10:37:09.006Z,0.60
2023-08-07T10:42:12.985Z,0.70
2023-08-07T10:47:14.799Z,0.75
2023-08-07T10:52:16.495Z,0.60
2023-08-07T10:57:19.738Z,0.40
2023-08-07T11:02:27.171Z,0.55
2023-08-07T11:07:30.984Z,0.50
2023-08-07T11:12:32.717Z,0.57
2023-08-07T11:17:34.490Z,0.40
2023-08-07T11:22:36.179Z,0.40
2023-08-07T11:27:37.897Z,0.20
2023-08-07T11:32:39.734Z,0.50
2023-08-07T11:37:48.981Z,0.30
2023-08-07T11:42:50.686Z,0.45
2023-08-07T11:47:52.508Z,0.40
2023-08-07T11:52:54.430Z,0.30
2023-08-07T11:57:56.574Z,0.40
2023-08-07T12:02:58.313Z,0.30
2023-08-07T12:08:00.100Z,0.30
2023-08-07T12:13:05.898Z,0.20
2023-08-07T12:18:09.016Z,0.20
2023-08-07T12:23:17.472Z,0.20
2023-08-07T12:28:19.954Z,0.20
2023-08-07T12:33:21.681Z,0.50
2023-08-07T12:38:23.488Z,0.22
2023-08-07T12:43:25.812Z,0.20
2023-08-07T12:48:29.467Z,0.25
2023-08-07T12:53:32.971Z,0.30
2023-08-07T12:58:35.274Z,0.20
2023-08-07T13:03:38.247Z,0.30
2023-08-07T13:08:40.060Z,0.20
2023-08-07T13:13:42.657Z,0.30
2023-08-07T13:18:44.524Z,0.20
2023-08-07T13:23:46.222Z,0.30
2023-08-07T13:28:47.919Z,0.20
2023-08-07T13:33:49.598Z,0.20
2023-08-07T13:38:52.928Z,0.20
2023-08-07T13:43:54.925Z,0.22
2023-08-07T13:48:56.747Z,0.08
2023-08-07T13:53:58.566Z,0.30
2023-08-07T13:59:01.326Z,0.20
2023-08-07T14:04:03.923Z,0.25
2023-08-07T14:09:05.811Z,0.50
2023-08-07T14:14:07.566Z,0.57
2023-08-07T14:19:09.683Z,0.30
2023-08-07T14:24:11.517Z,0.38
2023-08-07T14:29:14.456Z,0.40
2023-08-07T14:34:16.228Z,0.25
2023-08-07T14:39:18.219Z,0.40
2023-08-07T14:44:20.023Z,0.40
2023-08-07T14:49:21.906Z,0.30
2023-08-07T14:54:24.853Z,0.30
2023-08-07T14:59:26.895Z,0.35
2023-08-07T15:04:28.941Z,0.30
2023-08-07T15:09:30.773Z,0.40
2023-08-07T15:14:32.511Z,0.20
2023-08-07T15:19:34.431Z,0.22
2023-08-07T15:24:36.476Z,0.52
2023-08-07T15:29:42.013Z,0.50
2023-08-07T15:34:43.852Z,0.30
2023-08-07T15:39:45.690Z,0.20
2023-08-07T15:44:47.791Z,0.40
2023-08-07T15:49:49.669Z,0.40
2023-08-07T15:54:51.377Z,0.50
2023-08-07T15:59:53.229Z,0.68
2023-08-07T16:04:54.934Z,0.50
2023-08-07T16:09:57.162Z,0.45
2023-08-07T16:15:00.197Z,0.75
2023-08-07T16:20:01.996Z,0.70
2023-08-07T16:25:05.210Z,0.63
2023-08-07T16:30:08.238Z,0.60
2023-08-07T16:35:10.327Z,0.80
2023-08-07T16:40:12.735Z,0.50
2023-08-07T16:45:14.481Z,0.40
2023-08-07T16:50:16.371Z,0.50
2023-08-07T16:55:18.228Z,0.50
2023-08-07T17:00:20.180Z,0.50
2023-08-07T17:05:23.395Z,0.50
2023-08-07T17:10:25.321Z,0.65
2023-08-07T17:15:27.294Z,0.90
2023-08-07T17:20:29.161Z,0.80
2023-08-07T17:25:30.969Z,0.60
2023-08-07T17:30:32.703Z,0.50
2023-08-07T17:35:35.580Z,0.80
2023-08-07T17:40:37.434Z,0.60
2023-08-07T17:45:39.181Z,0.93
2023-08-07T17:50:41.038Z,0.80
2023-08-07T17:55:44.129Z,1.23
2023-08-07T18:00:46.062Z,1.05
2023-08-07T18:05:47.879Z,0.68
2023-08-07T18:10:50.129Z,0.88
2023-08-07T18:15:52.224Z,0.80
2023-08-07T18:20:54.791Z,0.98
2023-08-07T18:25:57.291Z,0.93
2023-08-07T18:30:59.738Z,1.10
2023-08-07T18:36:02.156Z,1.30
2023-08-07T18:41:07.121Z,1.40
2023-08-07T18:46:09.222Z,1.10
2023-08-07T18:51:12.173Z,1.23
2023-08-07T18:56:15.157Z,1.00
2023-08-07T19:01:18.402Z,1.25
2023-08-07T19:06:20.960Z,1.45
2023-08-07T19:11:23.140Z,1.25
2023-08-07T19:16:25.232Z,1.50
2023-08-07T19:21:27.447Z,1.60
2023-08-07T19:26:29.673Z,1.45
2023-08-07T19:31:31.956Z,1.55
2023-08-07T19:36:33.940Z,2.05
2023-08-07T19:41:37.355Z,1.25
2023-08-07T19:46:39.365Z,1.35
2023-08-07T19:51:41.523Z,1.33
2023-08-07T19:56:43.747Z,1.50
2023-08-07T20:01:45.955Z,1.25
2023-08-07T20:06:47.775Z,1.30
2023-08-07T20:11:49.672Z,1.30
2023-08-07T20:16:51.856Z,1.45
2023-08-07T20:22:00.046Z,1.25
2023-08-07T20:27:02.194Z,1.80
2023-08-07T20:32:04.698Z,1.60
2023-08-07T20:37:22.828Z,1.00
2023-08-07T20:42:26.738Z,1.10
2023-08-07T20:47:28.686Z,1.40
2023-08-07T20:52:30.437Z,1.10
2023-08-07T20:57:32.127Z,1.10
2023-08-07T21:02:34.118Z,1.23
2023-08-07T21:07:35.773Z,1.40
2023-08-07T21:12:37.529Z,0.90
2023-08-07T21:17:39.209Z,0.90
2023-08-07T21:22:40.977Z,0.80
2023-08-07T21:27:44.719Z,1.15
2023-08-07T21:32:47.001Z,1.00
2023-08-07T21:37:48.739Z,1.00
2023-08-07T21:42:50.432Z,1.05
2023-08-07T21:47:52.236Z,1.73
2023-08-07T21:52:53.952Z,1.33
2023-08-07T21:57:55.677Z,1.23
2023-08-07T22:02:57.430Z,1.73
2023-08-07T22:08:01.690Z,1.40
2023-08-07T22:13:03.465Z,1.20
2023-08-07T22:18:05.447Z,1.25
2023-08-07T22:23:07.154Z,1.60
2023-08-07T22:28:09.792Z,1.20
2023-08-07T22:33:11.562Z,1.33
2023-08-07T22:38:13.302Z,1.15
2023-08-07T22:43:15.184Z,1.13
2023-08-07T22:48:17.294Z,1.48
2023-08-07T22:53:19.031Z,1.70
2023-08-07T22:58:20.732Z,1.83
2023-08-07T23:03:22.545Z,1.13
2023-08-07T23:08:24.307Z,1.10
2023-08-07T23:13:25.931Z,1.27
2023-08-07T23:18:27.697Z,1.00
2023-08-07T23:23:29.491Z,1.17
2023-08-07T23:28:31.172Z,1.20
2023-08-07T23:33:32.929Z,1.35
2023-08-07T23:38:34.667Z,1.10
2023-08-07T23:43:36.458Z,1.15
2023-08-07T23:48:39.921Z,1.10
2023-08-07T23:53:41.548Z,1.38
2023-08-07T23:58:43.273Z,1.45
